Fort Hunter, New York
Current Conditions -  °F | °C
As of 3:55 AM on Sunday 26 Oct 2014 (Local Time) from KNY0 Reporting Station
Broken Clouds Broken Clouds  
Wind Chill:   Ceiling: 5500
Heat Index:   Visibility: 10mi
Dew Point:   Wind: 10mph
Humidity: 90%   Direction: 270°W
Pressure: 29.5"   Gusts: NA
Location:  42.94°N, 74.28°W
Report Text: KNY0 260755Z AUTO 27009KT 10SM SCT027 BKN055 07/06 A2950 RMK AO2 T00700055
Loading
Personal Weather Stations






























Interactive Weather Map
Tropical Storm Tracking
New forecast layout! Learn more

10-Day Weather Forecast

Advertisements
Track Severe Weather on mobile